createdAt,value
2023-07-28T00:01:16.597Z,100.00
2023-07-28T00:03:44.239Z,100.00
2023-07-28T00:06:11.469Z,100.00
2023-07-28T00:08:39.048Z,100.00
2023-07-28T00:11:11.225Z,100.00
2023-07-28T00:13:38.332Z,100.00
2023-07-28T00:16:07.606Z,100.00
2023-07-28T00:18:35.864Z,100.00
2023-07-28T00:21:03.186Z,100.00
2023-07-28T00:23:30.228Z,100.00
2023-07-28T00:25:57.653Z,100.00
2023-07-28T00:28:24.803Z,100.00
2023-07-28T00:30:51.985Z,100.00
2023-07-28T00:33:19.374Z,100.00
2023-07-28T00:35:46.915Z,100.00
2023-07-28T00:38:13.907Z,100.00
2023-07-28T00:40:40.906Z,100.00
2023-07-28T00:43:08.338Z,100.00
2023-07-28T00:45:36.966Z,100.00
2023-07-28T00:48:05.372Z,100.00
2023-07-28T00:50:32.925Z,100.00
2023-07-28T00:53:00.163Z,100.00
2023-07-28T00:55:27.702Z,100.00
2023-07-28T00:57:54.640Z,100.00
2023-07-28T01:00:21.535Z,100.00
2023-07-28T01:02:48.474Z,100.00
2023-07-28T01:05:16.880Z,100.00
2023-07-28T01:07:48.453Z,100.00
2023-07-28T01:10:33.945Z,100.00
2023-07-28T01:13:01.246Z,100.00
2023-07-28T01:15:28.541Z,100.00
2023-07-28T01:17:56.490Z,100.00
2023-07-28T01:20:28.753Z,100.00
2023-07-28T01:23:10.395Z,100.00
2023-07-28T01:25:59.225Z,100.00
2023-07-28T01:28:27.212Z,100.00
2023-07-28T01:30:54.294Z,100.00
2023-07-28T01:33:21.374Z,100.00
2023-07-28T01:35:48.122Z,100.00
2023-07-28T01:38:15.186Z,100.00
2023-07-28T01:40:42.295Z,100.00
2023-07-28T01:43:09.522Z,100.00
2023-07-28T01:45:36.612Z,100.00
2023-07-28T01:48:04.150Z,100.00
2023-07-28T01:50:31.128Z,100.00
2023-07-28T01:52:58.791Z,100.00
2023-07-28T01:55:26.315Z,100.00
2023-07-28T01:58:01.429Z,100.00
2023-07-28T02:00:28.923Z,100.00
2023-07-28T02:02:56.621Z,100.00
2023-07-28T02:05:24.337Z,100.00
2023-07-28T02:07:51.424Z,100.00
2023-07-28T02:10:18.713Z,100.00
2023-07-28T02:12:45.881Z,100.00
2023-07-28T02:15:13.658Z,100.00
2023-07-28T02:17:40.777Z,100.00
2023-07-28T02:20:11.620Z,100.00
2023-07-28T02:22:39.010Z,100.00
2023-07-28T02:25:06.421Z,100.00
2023-07-28T02:27:33.104Z,100.00
2023-07-28T02:30:00.542Z,100.00
2023-07-28T02:32:29.737Z,100.00
2023-07-28T02:34:56.968Z,100.00
2023-07-28T02:37:25.967Z,100.00
2023-07-28T02:39:53.487Z,100.00
2023-07-28T02:42:20.574Z,100.00
2023-07-28T02:44:47.810Z,100.00
2023-07-28T02:47:15.245Z,100.00
2023-07-28T02:49:42.320Z,100.00
2023-07-28T02:52:09.474Z,100.00
2023-07-28T02:54:36.370Z,100.00
2023-07-28T02:57:03.812Z,100.00
2023-07-28T02:59:30.920Z,100.00
2023-07-28T03:01:58.705Z,100.00
2023-07-28T03:04:26.430Z,100.00
2023-07-28T03:06:53.607Z,100.00
2023-07-28T03:09:20.695Z,100.00
2023-07-28T03:11:48.378Z,100.00
2023-07-28T03:14:15.346Z,100.00
2023-07-28T03:16:43.254Z,100.00
2023-07-28T03:19:10.143Z,100.00
2023-07-28T03:21:39.902Z,100.00
2023-07-28T03:24:07.475Z,100.00
2023-07-28T03:26:35.455Z,100.00
2023-07-28T03:29:03.308Z,100.00
2023-07-28T03:31:30.115Z,100.00
2023-07-28T03:33:57.278Z,100.00
2023-07-28T03:36:24.489Z,100.00
2023-07-28T03:38:51.879Z,100.00
2023-07-28T03:41:19.008Z,100.00
2023-07-28T03:43:47.180Z,100.00
2023-07-28T03:46:14.161Z,100.00
2023-07-28T03:48:41.092Z,100.00
2023-07-28T03:51:07.944Z,100.00
2023-07-28T03:53:36.397Z,100.00
2023-07-28T03:56:04.103Z,100.00
2023-07-28T03:58:31.073Z,100.00
2023-07-28T04:00:58.169Z,100.00
2023-07-28T04:03:25.412Z,100.00
2023-07-28T04:05:52.100Z,100.00
2023-07-28T04:08:19.052Z,100.00
2023-07-28T04:10:45.953Z,100.00
2023-07-28T04:13:13.836Z,100.00
2023-07-28T04:15:40.820Z,100.00
2023-07-28T04:18:08.137Z,100.00
2023-07-28T04:20:35.892Z,100.00
2023-07-28T04:23:03.060Z,100.00
2023-07-28T04:25:30.033Z,100.00
2023-07-28T04:27:57.692Z,100.00
2023-07-28T04:30:25.719Z,100.00
2023-07-28T04:32:52.817Z,100.00
2023-07-28T04:35:19.950Z,100.00
2023-07-28T04:37:46.950Z,100.00
2023-07-28T04:40:16.251Z,100.00
2023-07-28T04:42:44.763Z,100.00
2023-07-28T04:45:11.710Z,100.00
2023-07-28T04:47:38.310Z,100.00
2023-07-28T04:50:06.349Z,100.00
2023-07-28T04:52:33.385Z,100.00
2023-07-28T04:55:00.466Z,100.00
2023-07-28T04:57:27.240Z,100.00
2023-07-28T04:59:54.251Z,100.00
2023-07-28T05:02:21.404Z,100.00
2023-07-28T05:04:48.655Z,100.00
2023-07-28T05:07:15.610Z,100.00
2023-07-28T05:09:42.658Z,100.00
2023-07-28T05:12:10.146Z,100.00
2023-07-28T05:14:37.081Z,100.00
2023-07-28T05:17:04.432Z,100.00
2023-07-28T05:19:31.136Z,100.00
2023-07-28T05:21:58.390Z,100.00
2023-07-28T05:24:25.197Z,100.00
2023-07-28T05:26:52.300Z,100.00
2023-07-28T05:29:19.105Z,100.00
2023-07-28T05:31:48.050Z,100.00
2023-07-28T05:34:15.214Z,100.00
2023-07-28T05:36:42.150Z,100.00
2023-07-28T05:39:08.908Z,100.00
2023-07-28T05:41:38.489Z,100.00
2023-07-28T05:44:06.051Z,100.00
2023-07-28T05:46:33.505Z,100.00
2023-07-28T05:49:00.817Z,100.00
2023-07-28T05:51:28.283Z,100.00
2023-07-28T05:53:55.945Z,100.00
2023-07-28T05:56:23.859Z,100.00
2023-07-28T05:58:52.903Z,100.00
2023-07-28T06:01:20.792Z,100.00
2023-07-28T06:03:47.849Z,100.00
2023-07-28T06:06:14.991Z,100.00
2023-07-28T06:08:42.242Z,100.00
2023-07-28T06:11:09.074Z,100.00
2023-07-28T06:13:36.751Z,100.00
2023-07-28T06:16:05.272Z,100.00
2023-07-28T06:18:31.882Z,100.00
2023-07-28T06:20:58.896Z,100.00
2023-07-28T06:23:26.992Z,100.00
2023-07-28T06:25:56.031Z,100.00
2023-07-28T06:28:23.761Z,100.00
2023-07-28T06:30:58.248Z,100.00
2023-07-28T06:33:26.607Z,100.00
2023-07-28T06:35:53.961Z,100.00
2023-07-28T06:38:21.299Z,100.00
2023-07-28T06:40:49.089Z,100.00
2023-07-28T06:43:15.816Z,100.00
2023-07-28T06:45:44.194Z,100.00
2023-07-28T06:48:11.163Z,100.00
2023-07-28T06:50:37.817Z,100.00
2023-07-28T06:53:06.009Z,100.00
2023-07-28T06:55:33.195Z,100.00
2023-07-28T06:58:00.270Z,100.00
2023-07-28T07:00:27.664Z,100.00
2023-07-28T07:02:54.794Z,100.00
2023-07-28T07:05:21.882Z,100.00
2023-07-28T07:07:49.092Z,100.00
2023-07-28T07:10:17.786Z,100.00
2023-07-28T07:12:45.039Z,100.00
2023-07-28T07:15:12.914Z,100.00
2023-07-28T07:17:41.032Z,100.00
2023-07-28T07:20:08.559Z,100.00
2023-07-28T07:22:36.927Z,100.00
2023-07-28T07:25:05.241Z,100.00
2023-07-28T07:27:32.733Z,100.00
2023-07-28T07:30:00.130Z,100.00
2023-07-28T07:32:27.836Z,100.00
2023-07-28T07:34:54.931Z,100.00
2023-07-28T07:37:21.736Z,100.00
2023-07-28T07:39:48.623Z,100.00
2023-07-28T07:42:15.920Z,100.00
2023-07-28T07:44:43.286Z,100.00
2023-07-28T07:47:16.968Z,100.00
2023-07-28T07:49:44.909Z,100.00
2023-07-28T07:52:12.160Z,100.00
2023-07-28T07:54:39.408Z,100.00
2023-07-28T07:57:07.477Z,100.00
2023-07-28T07:59:36.410Z,100.00
2023-07-28T08:02:04.608Z,100.00
2023-07-28T08:04:32.616Z,100.00
2023-07-28T08:06:59.913Z,100.00
2023-07-28T08:09:27.040Z,100.00
2023-07-28T08:11:55.402Z,100.00
2023-07-28T08:14:22.438Z,100.00
2023-07-28T08:16:50.054Z,100.00
2023-07-28T08:19:17.403Z,100.00
2023-07-28T08:21:44.458Z,100.00
2023-07-28T08:24:12.904Z,100.00
2023-07-28T08:26:39.964Z,100.00
2023-07-28T08:29:07.223Z,100.00
2023-07-28T08:31:34.598Z,100.00
2023-07-28T08:34:02.250Z,100.00
2023-07-28T08:36:29.026Z,100.00
2023-07-28T08:38:56.860Z,100.00
2023-07-28T08:41:24.466Z,100.00
2023-07-28T08:43:52.310Z,100.00
2023-07-28T08:46:21.122Z,100.00
2023-07-28T08:48:48.668Z,100.00
2023-07-28T08:51:16.838Z,100.00
2023-07-28T08:53:44.246Z,100.00
2023-07-28T08:56:11.153Z,100.00
2023-07-28T08:58:38.528Z,100.00
2023-07-28T09:01:06.560Z,100.00
2023-07-28T09:03:38.464Z,100.00
2023-07-28T09:06:09.486Z,100.00
2023-07-28T09:08:37.781Z,100.00
2023-07-28T09:11:06.980Z,100.00
2023-07-28T09:13:40.029Z,100.00
2023-07-28T09:16:17.737Z,100.00
2023-07-28T09:18:44.914Z,100.00
2023-07-28T09:21:21.856Z,100.00
2023-07-28T09:23:49.501Z,100.00
2023-07-28T09:26:17.969Z,100.00
2023-07-28T09:28:45.262Z,100.00
2023-07-28T09:31:12.794Z,100.00
2023-07-28T09:33:47.567Z,100.00
2023-07-28T09:36:18.827Z,100.00
2023-07-28T09:38:46.407Z,100.00
2023-07-28T09:41:14.063Z,100.00
2023-07-28T09:43:42.418Z,100.00
2023-07-28T09:46:11.748Z,100.00
2023-07-28T09:48:40.404Z,100.00
2023-07-28T09:51:17.963Z,100.00
2023-07-28T09:53:54.059Z,100.00
2023-07-28T09:56:23.285Z,100.00
2023-07-28T09:58:52.358Z,100.00
2023-07-28T10:01:23.154Z,100.00
2023-07-28T10:03:51.733Z,100.00
2023-07-28T10:06:20.948Z,100.00
2023-07-28T10:08:48.299Z,100.00
2023-07-28T10:11:17.721Z,100.00
2023-07-28T10:13:47.529Z,100.00
2023-07-28T10:16:18.465Z,100.00
2023-07-28T10:18:55.717Z,100.00
2023-07-28T10:21:28.237Z,100.00
2023-07-28T10:23:57.337Z,100.00
2023-07-28T10:26:38.427Z,100.00
2023-07-28T10:29:16.490Z,100.00
2023-07-28T10:31:55.072Z,100.00
2023-07-28T10:34:23.538Z,100.00
2023-07-28T10:37:00.546Z,100.00
2023-07-28T10:39:28.116Z,100.00
2023-07-28T10:42:06.477Z,100.00
2023-07-28T10:44:34.386Z,100.00
2023-07-28T10:47:02.496Z,100.00
2023-07-28T10:49:30.609Z,100.00
2023-07-28T10:51:57.700Z,100.00
2023-07-28T10:54:24.973Z,100.00
2023-07-28T10:56:52.273Z,98.69
2023-07-28T10:59:19.426Z,96.50
2023-07-28T11:01:46.662Z,95.21
2023-07-28T11:04:16.385Z,99.14
2023-07-28T11:06:49.783Z,99.26
2023-07-28T11:09:21.090Z,98.78
2023-07-28T11:11:48.362Z,97.70
2023-07-28T11:14:17.212Z,95.74
2023-07-28T11:16:46.124Z,94.92
2023-07-28T11:19:18.772Z,97.43
2023-07-28T11:21:52.529Z,94.59
2023-07-28T11:24:21.430Z,92.02
2023-07-28T11:26:48.645Z,90.99
2023-07-28T11:29:17.460Z,89.54
2023-07-28T11:31:44.653Z,89.91
2023-07-28T11:34:16.143Z,89.85
2023-07-28T11:36:43.697Z,92.35
2023-07-28T11:39:11.832Z,94.10
2023-07-28T11:41:40.928Z,90.97
2023-07-28T11:44:09.715Z,88.29
2023-07-28T11:46:42.180Z,91.09
2023-07-28T11:49:19.226Z,85.02
2023-07-28T11:51:49.555Z,86.36
2023-07-28T11:54:20.512Z,85.78
2023-07-28T11:56:48.504Z,82.92
2023-07-28T11:59:17.633Z,84.62
2023-07-28T12:07:08.486Z,83.34
2023-07-28T12:09:50.369Z,84.02
2023-07-28T12:13:31.426Z,82.97
2023-07-28T12:20:49.294Z,83.11
2023-07-28T12:25:56.600Z,83.56
2023-07-28T12:28:23.730Z,82.51
2023-07-28T12:30:53.203Z,80.80
2023-07-28T12:33:22.513Z,82.71
2023-07-28T12:35:51.388Z,82.83
2023-07-28T12:48:20.993Z,75.39
2023-07-28T12:50:48.597Z,75.84
2023-07-28T12:53:20.216Z,77.97
2023-07-28T13:03:23.144Z,74.88
2023-07-28T13:05:50.385Z,74.47
2023-07-28T13:08:17.716Z,75.75
2023-07-28T13:13:15.091Z,79.06
2023-07-28T13:15:42.768Z,76.98
2023-07-28T13:18:09.747Z,77.50
2023-07-28T13:20:36.683Z,79.33
2023-07-28T13:23:03.840Z,79.34
2023-07-28T13:25:31.046Z,81.40
2023-07-28T13:27:58.125Z,80.71
2023-07-28T13:30:26.335Z,84.11
2023-07-28T13:32:55.805Z,81.77
2023-07-28T13:35:23.898Z,78.26
2023-07-28T13:37:50.838Z,77.66
2023-07-28T13:40:18.438Z,78.90
2023-07-28T13:42:46.305Z,77.70
2023-07-28T13:45:14.108Z,77.38
2023-07-28T13:47:41.251Z,79.36
2023-07-28T13:50:08.860Z,80.49
2023-07-28T13:52:37.414Z,78.57
2023-07-28T13:57:36.462Z,74.67
2023-07-28T14:00:04.596Z,69.67
2023-07-28T14:02:32.182Z,70.04
2023-07-28T14:04:59.384Z,64.12
2023-07-28T14:07:27.022Z,64.23
2023-07-28T14:09:55.827Z,62.16
2023-07-28T14:12:23.426Z,62.22
2023-07-28T14:14:53.327Z,61.86
2023-07-28T14:17:20.196Z,65.37
2023-07-28T14:19:47.621Z,63.24
2023-07-28T14:22:15.063Z,62.32
2023-07-28T14:24:42.669Z,59.21
2023-07-28T14:27:09.731Z,63.10
2023-07-28T14:29:36.745Z,62.31
2023-07-28T14:32:04.057Z,65.24
2023-07-28T14:34:31.236Z,67.45
2023-07-28T14:36:58.215Z,69.81
2023-07-28T14:39:25.291Z,71.42
2023-07-28T14:41:52.229Z,72.66
2023-07-28T14:44:18.989Z,72.99
2023-07-28T14:46:47.555Z,74.96
2023-07-28T14:49:14.833Z,75.10
2023-07-28T14:51:42.458Z,75.61
2023-07-28T14:54:09.680Z,76.07
2023-07-28T14:56:37.863Z,76.62
2023-07-28T14:59:04.770Z,75.72
2023-07-28T15:01:34.129Z,76.75
2023-07-28T15:04:03.561Z,74.70
2023-07-28T15:06:32.270Z,76.58
2023-07-28T15:08:59.176Z,74.99
2023-07-28T15:11:26.779Z,77.15
2023-07-28T15:13:53.838Z,80.08
2023-07-28T15:16:20.860Z,79.82
2023-07-28T15:18:48.416Z,80.00
2023-07-28T15:21:16.484Z,79.59
2023-07-28T15:23:44.118Z,80.12
2023-07-28T15:26:11.165Z,83.25
2023-07-28T15:28:39.002Z,83.28
2023-07-28T15:31:06.747Z,84.64
2023-07-28T15:33:33.756Z,85.85
2023-07-28T15:36:00.714Z,85.13
2023-07-28T15:38:27.447Z,85.06
2023-07-28T15:40:58.559Z,84.86
2023-07-28T15:43:26.788Z,85.96
2023-07-28T15:45:56.308Z,87.55
2023-07-28T15:48:24.110Z,86.10
2023-07-28T15:50:53.116Z,85.87
2023-07-28T15:53:20.425Z,84.67
2023-07-28T15:55:47.629Z,84.05
2023-07-28T15:58:14.858Z,83.14
2023-07-28T16:01:09.731Z,84.35
2023-07-28T16:03:39.653Z,84.95
2023-07-28T16:06:07.295Z,83.90
2023-07-28T16:08:35.158Z,84.83
2023-07-28T16:11:02.275Z,84.19
2023-07-28T16:13:29.368Z,87.12
2023-07-28T16:15:56.666Z,87.80
2023-07-28T16:18:24.418Z,88.89
2023-07-28T16:20:52.648Z,91.26
2023-07-28T16:23:19.801Z,92.47
2023-07-28T16:25:48.867Z,93.04
2023-07-28T16:28:16.707Z,91.96
2023-07-28T16:30:47.014Z,92.41
2023-07-28T16:33:14.216Z,92.06
2023-07-28T16:35:41.760Z,91.34
2023-07-28T16:38:08.980Z,91.14
2023-07-28T16:40:36.146Z,91.19
2023-07-28T16:43:02.887Z,89.70
2023-07-28T16:45:30.444Z,88.88
2023-07-28T16:47:58.197Z,87.70
2023-07-28T16:50:25.402Z,86.88
2023-07-28T16:52:52.873Z,84.97
2023-07-28T16:55:20.180Z,82.73
2023-07-28T16:57:47.984Z,80.81
2023-07-28T17:00:15.395Z,80.22
2023-07-28T17:02:42.648Z,79.27
2023-07-28T17:05:09.897Z,79.64
2023-07-28T17:07:37.121Z,79.62
2023-07-28T17:10:05.026Z,79.96
2023-07-28T17:12:32.293Z,80.44
2023-07-28T17:14:59.439Z,80.70
2023-07-28T17:17:27.613Z,79.91
2023-07-28T17:19:54.649Z,80.41
2023-07-28T17:22:22.390Z,80.28
2023-07-28T17:24:51.405Z,80.88
2023-07-28T17:27:18.594Z,81.65
2023-07-28T17:29:46.084Z,82.78
2023-07-28T17:32:13.023Z,82.12
2023-07-28T17:34:41.084Z,84.17
2023-07-28T17:37:09.200Z,84.86
2023-07-28T17:39:36.853Z,86.32
2023-07-28T17:42:04.264Z,86.29
2023-07-28T17:44:31.222Z,87.18
2023-07-28T17:46:58.349Z,88.50
2023-07-28T17:49:25.423Z,89.91
2023-07-28T17:51:52.575Z,89.86
2023-07-28T17:54:19.706Z,88.87
2023-07-28T17:56:47.380Z,89.17
2023-07-28T17:59:14.358Z,88.12
2023-07-28T18:01:41.433Z,88.78
2023-07-28T18:04:08.584Z,90.14
2023-07-28T18:06:35.323Z,91.56
2023-07-28T18:09:04.154Z,91.18
2023-07-28T18:11:31.349Z,90.28
2023-07-28T18:13:58.628Z,90.56
2023-07-28T18:16:27.049Z,90.66
2023-07-28T18:18:54.230Z,88.85
2023-07-28T18:21:22.813Z,90.13
2023-07-28T18:23:49.725Z,88.78
2023-07-28T18:26:16.603Z,88.71
2023-07-28T18:28:43.846Z,87.80
2023-07-28T18:31:10.958Z,87.11
2023-07-28T18:33:38.048Z,87.72
2023-07-28T18:36:05.344Z,88.11
2023-07-28T18:38:32.736Z,88.85
2023-07-28T18:40:59.612Z,88.37
2023-07-28T18:43:28.549Z,87.45
2023-07-28T18:45:56.064Z,86.91
2023-07-28T18:48:23.360Z,87.46
2023-07-28T18:50:50.890Z,89.95
2023-07-28T18:53:18.319Z,91.34
2023-07-28T18:55:45.863Z,92.76
2023-07-28T18:58:13.656Z,92.72
2023-07-28T19:00:41.000Z,93.03
2023-07-28T19:03:08.439Z,93.60
2023-07-28T19:05:36.309Z,93.90
2023-07-28T19:08:03.319Z,94.70
2023-07-28T19:10:30.228Z,96.21
2023-07-28T19:12:57.256Z,97.49
2023-07-28T19:15:44.728Z,100.00
2023-07-28T19:18:11.454Z,100.00
2023-07-28T19:20:38.587Z,100.00
2023-07-28T19:23:06.296Z,100.00
2023-07-28T19:25:34.713Z,100.00
2023-07-28T19:28:02.541Z,100.00
2023-07-28T19:30:29.716Z,100.00
2023-07-28T19:32:56.932Z,100.00
2023-07-28T19:35:25.376Z,100.00
2023-07-28T19:37:52.626Z,100.00
2023-07-28T19:40:19.542Z,100.00
2023-07-28T19:42:47.164Z,100.00
2023-07-28T19:45:14.232Z,100.00
2023-07-28T19:47:41.728Z,100.00
2023-07-28T19:50:22.593Z,100.00
2023-07-28T19:52:58.491Z,100.00
2023-07-28T19:55:25.585Z,100.00
2023-07-28T19:57:52.674Z,100.00
2023-07-28T20:00:19.542Z,100.00
2023-07-28T20:02:46.981Z,100.00
2023-07-28T20:05:15.749Z,100.00
2023-07-28T20:07:44.202Z,100.00
2023-07-28T20:10:11.719Z,100.00
2023-07-28T20:12:38.764Z,100.00
2023-07-28T20:15:07.342Z,100.00
2023-07-28T20:17:34.410Z,100.00
2023-07-28T20:20:01.669Z,100.00
2023-07-28T20:22:28.547Z,100.00
2023-07-28T20:24:55.645Z,100.00
2023-07-28T20:27:23.678Z,100.00
2023-07-28T20:29:51.197Z,100.00
2023-07-28T20:32:18.008Z,100.00
2023-07-28T20:34:45.600Z,100.00
2023-07-28T20:37:13.368Z,100.00
2023-07-28T20:39:40.312Z,100.00
2023-07-28T20:42:07.493Z,100.00
2023-07-28T20:44:34.529Z,100.00
2023-07-28T20:47:01.445Z,100.00
2023-07-28T20:49:28.449Z,100.00
2023-07-28T20:51:55.522Z,100.00
2023-07-28T20:54:22.388Z,100.00
2023-07-28T20:56:49.188Z,100.00
2023-07-28T20:59:16.313Z,100.00
2023-07-28T21:01:43.335Z,100.00
2023-07-28T21:04:10.849Z,100.00
2023-07-28T21:06:38.094Z,100.00
2023-07-28T21:09:06.629Z,100.00
2023-07-28T21:11:33.453Z,100.00
2023-07-28T21:14:01.724Z,100.00
2023-07-28T21:16:28.545Z,100.00
2023-07-28T21:18:55.503Z,100.00
2023-07-28T21:21:23.853Z,100.00
2023-07-28T21:23:52.278Z,100.00
2023-07-28T21:26:19.081Z,100.00
2023-07-28T21:28:45.918Z,100.00
2023-07-28T21:31:13.382Z,100.00
2023-07-28T21:33:40.695Z,100.00
2023-07-28T21:36:07.771Z,100.00
2023-07-28T21:38:35.048Z,100.00
2023-07-28T21:41:01.950Z,100.00
2023-07-28T21:43:28.956Z,100.00
2023-07-28T21:45:56.879Z,100.00
2023-07-28T21:48:24.008Z,100.00
2023-07-28T21:50:50.959Z,100.00
2023-07-28T21:53:17.914Z,100.00
2023-07-28T21:55:44.847Z,100.00
2023-07-28T21:58:12.120Z,100.00
2023-07-28T22:00:38.937Z,100.00
2023-07-28T22:03:06.655Z,100.00
2023-07-28T22:05:35.430Z,100.00
2023-07-28T22:08:13.846Z,100.00
2023-07-28T22:10:41.764Z,100.00
2023-07-28T22:13:09.681Z,100.00
2023-07-28T22:15:36.436Z,100.00
2023-07-28T22:18:04.970Z,100.00
2023-07-28T22:20:33.998Z,100.00
2023-07-28T22:23:00.826Z,100.00
2023-07-28T22:25:29.168Z,100.00
2023-07-28T22:27:57.878Z,100.00
2023-07-28T22:30:25.409Z,100.00
2023-07-28T22:32:52.489Z,100.00
2023-07-28T22:35:19.513Z,100.00
2023-07-28T22:37:46.090Z,100.00
2023-07-28T22:40:13.315Z,100.00
2023-07-28T22:42:40.641Z,100.00
2023-07-28T22:45:07.764Z,100.00
2023-07-28T22:47:35.384Z,100.00
2023-07-28T22:50:02.919Z,100.00
2023-07-28T22:52:31.714Z,100.00
2023-07-28T22:55:10.255Z,100.00
2023-07-28T22:57:42.024Z,100.00
2023-07-28T23:00:11.817Z,100.00
2023-07-28T23:02:40.716Z,100.00
2023-07-28T23:05:10.599Z,100.00
2023-07-28T23:07:38.930Z,100.00
2023-07-28T23:10:07.412Z,100.00
2023-07-28T23:12:36.466Z,100.00
2023-07-28T23:15:05.086Z,100.00
2023-07-28T23:17:34.006Z,100.00
2023-07-28T23:20:01.096Z,100.00
2023-07-28T23:22:28.249Z,100.00
2023-07-28T23:24:55.532Z,100.00
2023-07-28T23:27:23.046Z,100.00
2023-07-28T23:29:51.118Z,100.00
2023-07-28T23:32:18.183Z,100.00
2023-07-28T23:34:45.246Z,100.00
2023-07-28T23:37:12.632Z,100.00
2023-07-28T23:39:39.822Z,100.00
2023-07-28T23:42:07.798Z,100.00
2023-07-28T23:44:37.522Z,100.00
2023-07-28T23:47:06.527Z,100.00
2023-07-28T23:49:37.106Z,100.00
2023-07-28T23:52:05.886Z,100.00
2023-07-28T23:54:34.467Z,100.00
2023-07-28T23:57:01.538Z,100.00
2023-07-28T23:59:29.732Z,100.00
